Time;durP1;ratioP1;P1;durP2;ratioP2;P2;SDS_P1;SDS_P2;PMS_P1;PMS_P2;Temp;Humidity;BMP_temperature;BMP_pressure;BME280_temperature;BME280_humidity;BME280_pressure;Samples;Min_cycle;Max_cycle;Signal;HPM_P1;HPM_P2
2022/05/17 00:02:08;;;;;;;9.73;6.30;;;;;;;18.23;69.87;100281.16;5087391;28;20028;-29
2022/05/17 00:04:34;;;;;;;10.23;6.13;;;;;;;18.26;69.55;100277.94;5068770;28;20036;-34
2022/05/17 00:07:00;;;;;;;8.93;6.10;;;;;;;18.43;68.16;100278.53;5068455;28;20063;-34
2022/05/17 00:09:26;;;;;;;9.80;6.60;;;;;;;18.24;67.86;100282.78;5086939;28;20067;-30
2022/05/17 00:11:52;;;;;;;10.45;6.57;;;;;;;18.23;69.08;100290.06;5086923;28;20055;-30
2022/05/17 00:14:18;;;;;;;8.30;6.10;;;;;;;18.16;68.54;100286.00;5086882;28;20032;-30
2022/05/17 00:16:45;;;;;;;8.35;6.40;;;;;;;18.45;68.18;100280.97;5086737;28;20031;-30
2022/05/17 00:19:12;;;;;;;8.60;6.80;;;;;;;18.30;67.94;100273.63;5068656;28;20392;-30
2022/05/17 00:21:39;;;;;;;7.93;6.77;;;;;;;17.95;68.86;100260.81;5068596;28;20028;-38
2022/05/17 00:24:06;;;;;;;8.88;6.50;;;;;;;17.81;69.49;100263.94;5087017;28;20288;-33
2022/05/17 00:26:33;;;;;;;8.95;6.85;;;;;;;17.76;69.76;100277.41;5068239;28;20720;-29
2022/05/17 00:28:59;;;;;;;8.63;7.13;;;;;;;17.74;70.48;100276.06;5068026;28;20547;-30
2022/05/17 00:31:24;;;;;;;8.90;7.00;;;;;;;17.58;71.59;100273.25;5068497;28;20028;-33
2022/05/17 00:33:50;;;;;;;8.68;7.25;;;;;;;17.72;71.82;100248.53;5086842;28;20085;-31
2022/05/17 00:36:15;;;;;;;10.32;6.97;;;;;;;17.84;71.50;100257.25;5086417;28;20035;-32
2022/05/17 00:38:40;;;;;;;7.43;5.85;;;;;;;17.86;70.83;100272.09;5086051;28;20039;-31
2022/05/17 00:41:06;;;;;;;9.98;6.75;;;;;;;18.00;71.12;100253.56;5086491;28;20027;-29
2022/05/17 00:46:27;;;;;;;7.15;5.70;;;;;;;17.58;70.80;100240.91;5044316;28;20553;-32
2022/05/17 00:48:54;;;;;;;8.65;5.72;;;;;;;17.24;72.27;100262.78;5086254;28;20028;-29
2022/05/17 00:51:26;;;;;;;9.77;7.03;;;;;;;16.85;72.09;100243.31;5051452;28;20038;-31
2022/05/17 00:53:54;;;;;;;9.07;6.57;;;;;;;17.05;74.45;100253.47;5067884;28;20596;-32
2022/05/17 00:56:21;;;;;;;;;;;;;;;17.11;71.52;100260.53;5086898;28;20039;-29
2022/05/17 00:58:54;;;;;;;13.05;7.60;;;;;;;17.32;72.29;100264.19;5086119;28;19908;-32
2022/05/17 01:01:23;;;;;;;9.52;6.45;;;;;;;17.47;71.86;100260.78;5086511;28;20415;-30
2022/05/17 01:04:01;;;;;;;10.38;6.68;;;;;;;17.63;71.51;100265.22;5068030;28;20515;-30
2022/05/17 01:06:32;;;;;;;8.60;6.70;;;;;;;17.58;71.15;100246.28;5086336;28;20028;-30
2022/05/17 01:08:58;;;;;;;9.50;7.38;;;;;;;17.36;70.57;100272.56;5068986;28;20032;-30
2022/05/17 01:11:23;;;;;;;10.23;6.82;;;;;;;17.47;71.24;100256.22;5090423;28;20032;-35
2022/05/17 01:16:33;;;;;;;10.05;7.60;;;;;;;17.15;70.40;100242.78;5090479;28;20577;-33
2022/05/17 01:18:58;;;;;;;9.73;7.70;;;;;;;17.02;73.12;100245.88;5090298;28;20052;-32
2022/05/17 01:21:24;;;;;;;10.50;7.05;;;;;;;17.79;70.14;100266.09;5090394;28;20032;-28
2022/05/17 01:23:50;;;;;;;8.95;7.03;;;;;;;17.25;71.51;100263.59;5090442;28;20107;-32
2022/05/17 01:26:21;;;;;;;7.65;5.72;;;;;;;17.35;72.40;100265.56;5088801;28;20488;-30
2022/05/17 01:28:47;;;;;;;8.63;5.95;;;;;;;17.84;69.90;100259.97;5071617;28;20036;-29
2022/05/17 01:31:14;;;;;;;8.52;6.05;;;;;;;17.89;69.36;100262.66;5090019;28;20031;-31
2022/05/17 01:33:40;;;;;;;7.43;5.80;;;;;;;17.92;69.87;100262.16;5071500;28;20032;-35
2022/05/17 01:36:08;;;;;;;13.63;5.68;;;;;;;17.55;70.40;100257.63;5090113;28;20160;-29
2022/05/17 01:38:34;;;;;;;7.80;5.65;;;;;;;17.10;72.37;100267.00;5071617;28;20136;-31
2022/05/17 01:41:00;;;;;;;8.40;6.13;;;;;;;16.68;72.50;100262.28;5071257;28;20084;-29
2022/05/17 01:43:26;;;;;;;10.40;6.68;;;;;;;16.85;74.15;100252.22;5089987;28;20032;-33
2022/05/17 01:45:52;;;;;;;8.13;6.38;;;;;;;16.91;72.69;100246.88;5071277;28;20488;-34
2022/05/17 01:48:18;;;;;;;8.73;6.75;;;;;;;16.38;72.50;100233.97;5071205;28;20498;-32
2022/05/17 01:50:44;;;;;;;8.45;6.32;;;;;;;16.60;74.88;100254.66;5089756;28;20055;-29
2022/05/17 01:53:09;;;;;;;8.85;6.63;;;;;;;17.03;73.28;100269.06;5089812;28;20477;-29
2022/05/17 01:55:35;;;;;;;8.48;6.53;;;;;;;17.23;71.50;100261.16;5089825;28;20052;-29
2022/05/17 01:58:00;;;;;;;11.02;7.30;;;;;;;17.37;71.74;100252.63;5089610;28;20052;-34
2022/05/17 02:00:26;;;;;;;8.73;6.85;;;;;;;17.46;70.65;100248.38;5087874;28;20028;-29
2022/05/17 02:02:52;;;;;;;9.80;6.65;;;;;;;17.12;70.29;100223.59;5089364;28;20035;-30
2022/05/17 02:05:19;;;;;;;8.50;6.95;;;;;;;17.25;71.97;100242.84;5071120;28;20050;-28
2022/05/17 02:07:45;;;;;;;8.90;6.90;;;;;;;16.45;71.32;100239.16;5054443;28;20115;-30
2022/05/17 02:10:11;;;;;;;8.90;7.15;;;;;;;16.37;73.05;100245.00;5089472;28;20194;-29
2022/05/17 02:12:37;;;;;;;10.25;7.18;;;;;;;16.28;73.13;100233.84;5089067;28;20539;-29
2022/05/17 02:15:05;;;;;;;9.95;6.90;;;;;;;16.83;72.35;100238.19;5087657;28;20036;-30
2022/05/17 02:17:31;;;;;;;10.55;7.10;;;;;;;16.49;73.20;100232.19;5070722;28;20808;-29
2022/05/17 02:19:58;;;;;;;10.73;8.43;;;;;;;16.47;73.00;100242.41;5069974;28;20114;-29
2022/05/17 02:22:24;;;;;;;11.57;8.37;;;;;;;16.53;73.96;100245.94;5088878;28;20416;-29
2022/05/17 02:24:50;;;;;;;10.27;7.60;;;;;;;16.59;72.87;100234.16;5089000;28;20032;-35
2022/05/17 02:27:16;;;;;;;12.40;8.70;;;;;;;16.35;73.78;100229.09;5089072;28;20505;-29
2022/05/17 02:29:41;;;;;;;12.02;9.02;;;;;;;16.27;74.89;100221.47;5088729;28;20122;-31
2022/05/17 02:32:07;;;;;;;15.80;9.77;;;;;;;16.35;72.30;100233.66;5087771;28;20024;-30
2022/05/17 02:34:35;;;;;;;9.10;7.40;;;;;;;15.74;73.14;100223.00;5088914;28;20032;-30
2022/05/17 02:37:00;;;;;;;8.75;7.03;;;;;;;15.53;74.04;100209.25;5070743;28;20028;-29
2022/05/17 02:39:26;;;;;;;11.02;8.40;;;;;;;15.42;76.56;100234.34;5088811;28;20040;-30
2022/05/17 02:41:51;;;;;;;11.00;8.25;;;;;;;15.12;77.99;100232.00;5088610;28;20423;-30
2022/05/17 02:44:16;;;;;;;9.35;7.65;;;;;;;15.32;76.19;100239.56;5088527;28;20032;-31
2022/05/17 02:46:42;;;;;;;11.05;9.25;;;;;;;15.46;75.43;100230.91;5088271;28;20020;-29
2022/05/17 02:49:07;;;;;;;11.95;9.45;;;;;;;15.46;75.69;100232.78;5088697;28;20036;-30
2022/05/17 02:51:34;;;;;;;10.43;8.35;;;;;;;15.36;76.32;100243.38;5088263;28;20055;-32
2022/05/17 02:54:00;;;;;;;11.25;8.73;;;;;;;15.41;75.66;100227.34;5088437;28;20032;-31
2022/05/17 02:56:25;;;;;;;11.52;9.35;;;;;;;15.44;76.44;100234.91;5070117;28;20081;-34
2022/05/17 02:58:51;;;;;;;12.48;9.52;;;;;;;15.54;75.01;100243.13;5088355;28;20451;-36
2022/05/17 03:01:17;;;;;;;12.48;9.57;;;;;;;14.96;77.55;100241.72;5088116;28;20071;-30
2022/05/17 03:03:43;;;;;;;13.93;8.57;;;;;;;15.26;75.75;100238.66;5088416;28;20028;-29
2022/05/17 03:06:09;;;;;;;16.25;10.20;;;;;;;14.95;76.50;100232.00;5088394;28;20024;-34
2022/05/17 03:08:36;;;;;;;13.25;10.82;;;;;;;15.15;76.73;100232.34;5086622;28;20039;-30
2022/05/17 03:11:02;;;;;;;11.95;9.88;;;;;;;15.16;77.27;100239.34;5088195;28;20036;-29
2022/05/17 03:13:28;;;;;;;13.63;11.00;;;;;;;15.34;77.24;100240.13;5087843;28;20035;-29
2022/05/17 03:15:53;;;;;;;14.52;8.68;;;;;;;15.07;74.79;100248.84;5088011;28;20395;-32
2022/05/17 03:18:19;;;;;;;14.43;9.68;;;;;;;15.22;75.42;100230.31;5088207;28;20431;-29
2022/05/17 03:20:47;;;;;;;11.93;9.68;;;;;;;15.09;76.00;100249.44;5087829;28;20024;-32
2022/05/17 03:23:12;;;;;;;17.50;13.73;;;;;;;14.84;77.43;100231.84;5069799;28;20032;-35
2022/05/17 03:25:38;;;;;;;55.00;30.73;;;;;;;14.85;78.99;100254.97;5087803;28;20024;-32
2022/05/17 03:28:03;;;;;;;13.88;11.55;;;;;;;14.92;77.51;100237.88;5087621;28;20059;-29
2022/05/17 03:30:29;;;;;;;12.90;9.70;;;;;;;14.74;79.75;100253.16;5088058;28;20547;-29
2022/05/17 03:32:55;;;;;;;11.98;10.15;;;;;;;14.82;80.42;100254.63;5087801;28;20051;-29
2022/05/17 03:35:21;;;;;;;14.57;10.32;;;;;;;15.42;77.00;100253.97;5087649;28;20024;-30
2022/05/17 03:37:47;;;;;;;12.35;9.73;;;;;;;15.25;77.28;100248.63;5069373;28;20043;-30
2022/05/17 03:40:12;;;;;;;15.70;10.45;;;;;;;15.54;76.79;100253.88;5087830;28;20055;-29
2022/05/17 03:42:38;;;;;;;14.63;11.93;;;;;;;15.58;77.44;100244.25;5087370;28;20162;-29
2022/05/17 03:45:05;;;;;;;16.38;11.57;;;;;;;15.39;76.91;100226.78;5087530;28;20490;-29
2022/05/17 03:47:31;;;;;;;13.82;11.63;;;;;;;15.59;77.64;100258.50;5069043;28;20547;-31
2022/05/17 03:49:57;;;;;;;15.20;12.25;;;;;;;15.27;79.47;100251.06;5087457;28;20169;-32
2022/05/17 03:52:26;;;;;;;16.17;12.27;;;;;;;14.99;82.06;100251.94;5087225;28;20047;-31
2022/05/17 03:54:57;;;;;;;12.18;9.70;;;;;;;14.80;80.54;100252.19;5052116;28;20035;-29
2022/05/17 03:57:23;;;;;;;14.60;9.55;;;;;;;15.06;79.18;100271.41;5086899;28;20027;-29
2022/05/17 03:59:49;;;;;;;14.82;10.88;;;;;;;15.64;77.87;100264.75;5069040;28;20036;-31
2022/05/17 04:02:14;;;;;;;14.85;11.88;;;;;;;15.73;78.74;100264.38;5087175;28;20048;-29
2022/05/17 04:04:39;;;;;;;15.52;13.05;;;;;;;15.86;78.24;100259.47;5087364;28;20039;-29
2022/05/17 04:07:05;;;;;;;14.80;12.25;;;;;;;15.83;78.76;100269.88;5087478;28;20028;-28
2022/05/17 04:09:30;;;;;;;15.15;12.43;;;;;;;15.76;79.21;100247.75;5087114;28;20027;-28
2022/05/17 04:11:56;;;;;;;15.43;12.80;;;;;;;15.66;80.99;100272.59;5087334;28;20028;-28
2022/05/17 04:14:21;;;;;;;13.85;10.93;;;;;;;15.78;79.71;100269.84;5086971;28;20049;-30
2022/05/17 04:16:47;;;;;;;15.15;12.23;;;;;;;15.57;80.59;100269.53;5086759;28;20407;-28
2022/05/17 04:19:15;;;;;;;18.05;12.90;;;;;;;15.48;81.47;100266.41;5086794;28;20060;-35
2022/05/17 04:21:42;;;;;;;16.40;12.50;;;;;;;16.13;78.44;100255.22;5086900;28;20038;-30
2022/05/17 04:24:08;;;;;;;18.10;11.90;;;;;;;16.36;76.90;100270.28;5068397;28;20032;-29
2022/05/17 04:26:33;;;;;;;15.63;11.52;;;;;;;16.56;76.19;100272.38;5086324;28;20419;-30
2022/05/17 04:28:59;;;;;;;14.70;11.15;;;;;;;16.69;75.88;100277.34;5086879;28;20440;-31
2022/05/17 04:31:25;;;;;;;14.68;11.60;;;;;;;16.65;75.93;100255.53;5086612;28;20027;-33
2022/05/17 04:33:51;;;;;;;16.27;13.02;;;;;;;16.55;75.40;100270.75;5085215;28;20030;-32
2022/05/17 04:36:17;;;;;;;20.05;14.48;;;;;;;16.62;76.35;100269.47;5086638;28;20024;-32
2022/05/17 04:38:42;;;;;;;14.73;12.45;;;;;;;16.68;75.93;100271.16;5067712;28;20718;-29
2022/05/17 04:41:11;;;;;;;18.13;13.63;;;;;;;16.96;76.14;100271.16;5086132;28;20035;-33
2022/05/17 04:43:38;;;;;;;18.52;13.60;;;;;;;17.15;74.59;100268.91;5067622;28;20070;-38
2022/05/17 04:46:03;;;;;;;16.65;13.20;;;;;;;17.07;74.69;100268.31;5086597;28;20032;-31
2022/05/17 04:48:29;;;;;;;18.02;13.75;;;;;;;17.02;74.78;100251.28;5086465;28;20080;-41
2022/05/17 04:50:55;;;;;;;17.35;12.57;;;;;;;17.07;74.70;100260.22;5086476;28;20086;-29
2022/05/17 04:53:20;;;;;;;16.40;13.32;;;;;;;17.08;75.27;100261.06;5086339;28;20024;-30
2022/05/17 04:55:46;;;;;;;15.65;13.43;;;;;;;17.14;75.59;100253.78;5086115;28;20027;-30
2022/05/17 04:58:12;;;;;;;17.88;13.48;;;;;;;17.16;75.74;100254.34;5068084;28;20027;-29
2022/05/17 05:00:37;;;;;;;19.38;14.23;;;;;;;17.49;74.46;100255.94;5086079;28;20028;-32
2022/05/17 05:03:03;;;;;;;17.77;13.80;;;;;;;17.77;74.23;100252.03;5086186;28;20032;-30
2022/05/17 05:05:29;;;;;;;18.05;14.90;;;;;;;17.66;73.38;100243.09;5086199;28;20407;-30
2022/05/17 05:07:55;;;;;;;17.58;14.32;;;;;;;17.82;72.01;100230.50;5086124;28;20036;-34
2022/05/17 05:10:21;;;;;;;18.13;14.85;;;;;;;17.80;72.77;100248.03;5086169;28;20468;-30
2022/05/17 05:12:47;;;;;;;18.15;14.73;;;;;;;17.52;74.51;100247.34;5086427;28;20065;-29
2022/05/17 05:15:14;;;;;;;18.67;15.60;;;;;;;17.74;74.95;100254.47;5068074;28;20035;-31
2022/05/17 05:17:40;;;;;;;20.45;15.20;;;;;;;18.12;73.54;100239.81;5068116;28;20024;-34
2022/05/17 05:20:09;;;;;;;19.40;16.17;;;;;;;18.61;72.62;100268.31;5067835;28;20024;-29
2022/05/17 05:22:35;;;;;;;20.02;16.27;;;;;;;18.77;72.01;100256.44;5067549;28;20504;-30
2022/05/17 05:25:00;;;;;;;23.60;18.42;;;;;;;18.78;71.20;100255.38;5086269;28;20039;-30
2022/05/17 05:27:31;;;;;;;24.88;19.35;;;;;;;18.66;71.76;100262.91;5086195;28;20523;-29
2022/05/17 05:29:56;;;;;;;25.80;18.88;;;;;;;18.87;70.68;100255.66;5067748;28;20061;-37
2022/05/17 05:32:22;;;;;;;26.33;19.75;;;;;;;18.99;71.46;100264.31;5086122;28;20118;-30
2022/05/17 05:34:47;;;;;;;21.60;18.38;;;;;;;19.08;70.07;100261.88;5085732;28;20032;-30
2022/05/17 05:37:13;;;;;;;22.00;17.20;;;;;;;19.40;69.65;100277.81;5086195;28;20024;-30
2022/05/17 05:39:38;;;;;;;24.42;17.85;;;;;;;19.30;68.97;100279.72;5067334;28;20048;-29
2022/05/17 05:42:05;;;;;;;23.80;17.92;;;;;;;19.44;69.07;100275.38;5085938;28;20530;-30
2022/05/17 05:44:33;;;;;;;23.27;17.25;;;;;;;19.59;69.11;100275.34;5085815;28;20040;-31
2022/05/17 05:46:58;;;;;;;21.90;15.70;;;;;;;19.86;68.57;100276.97;5067675;28;20028;-29
2022/05/17 05:49:24;;;;;;;17.70;15.30;;;;;;;20.12;67.14;100274.94;5085805;28;20051;-29
2022/05/17 05:51:49;;;;;;;18.05;15.38;;;;;;;20.22;65.46;100274.09;5085682;28;20028;-32
2022/05/17 05:54:16;;;;;;;16.65;13.80;;;;;;;20.38;65.75;100275.66;5086264;28;20043;-30
2022/05/17 05:56:42;;;;;;;15.75;13.98;;;;;;;20.15;64.22;100263.59;5089515;28;20031;-29
2022/05/17 05:59:08;;;;;;;16.23;13.30;;;;;;;19.91;66.47;100258.00;5089540;28;20035;-32
2022/05/17 06:01:33;;;;;;;15.25;13.40;;;;;;;20.12;65.65;100269.53;5071338;28;20404;-29
2022/05/17 06:03:59;;;;;;;16.27;13.48;;;;;;;20.24;66.72;100258.38;5089552;28;20028;-30
2022/05/17 06:06:24;;;;;;;15.38;13.68;;;;;;;20.42;65.14;100257.75;5054219;28;20039;-33
2022/05/17 06:08:50;;;;;;;17.25;13.82;;;;;;;20.44;64.87;100273.72;5089281;28;20035;-29
2022/05/17 06:11:15;;;;;;;17.35;14.57;;;;;;;20.33;64.68;100275.69;5089461;28;20047;-34
2022/05/17 06:13:41;;;;;;;18.23;14.55;;;;;;;20.42;65.68;100274.00;5087830;28;20082;-29
2022/05/17 06:16:07;;;;;;;17.83;14.23;;;;;;;20.69;65.23;100271.97;5089462;28;20036;-32
2022/05/17 06:18:33;;;;;;;18.48;14.32;;;;;;;20.84;63.87;100252.88;5087500;28;20047;-31
2022/05/17 06:21:01;;;;;;;18.35;15.10;;;;;;;20.84;63.78;100275.41;5089101;28;20389;-28
2022/05/17 06:23:26;;;;;;;16.15;13.80;;;;;;;21.15;65.24;100263.50;5089579;28;20107;-31
2022/05/17 06:25:52;;;;;;;14.75;13.15;;;;;;;21.24;62.56;100246.31;5089951;28;20580;-30
2022/05/17 06:28:18;;;;;;;15.43;13.00;;;;;;;21.30;62.36;100268.78;5071800;28;20031;-32
2022/05/17 06:30:44;;;;;;;17.15;14.02;;;;;;;21.53;61.35;100269.94;5071019;28;20024;-31
2022/05/17 06:33:11;;;;;;;15.57;12.25;;;;;;;21.19;62.04;100259.94;5090100;28;20089;-29
2022/05/17 06:35:42;;;;;;;16.60;13.90;;;;;;;21.50;62.38;100265.09;5071211;28;20024;-31
2022/05/17 06:38:09;;;;;;;17.58;14.02;;;;;;;21.71;63.05;100281.16;5071628;28;20051;-30
2022/05/17 06:40:35;;;;;;;15.88;13.93;;;;;;;21.62;61.80;100267.44;5070900;28;20052;-29
2022/05/17 06:43:00;;;;;;;17.33;13.77;;;;;;;21.58;61.47;100250.91;5089816;28;20057;-29
2022/05/17 06:45:27;;;;;;;16.92;14.70;;;;;;;21.72;61.38;100255.63;5088303;28;20071;-33
2022/05/17 06:47:52;;;;;;;15.35;13.25;;;;;;;21.69;59.70;100246.16;5088231;28;20035;-29
2022/05/17 06:50:18;;;;;;;17.92;14.70;;;;;;;21.84;59.51;100259.56;5071082;28;20028;-29
2022/05/17 06:52:44;;;;;;;18.23;14.52;;;;;;;21.86;58.33;100246.53;5089440;28;20036;-31
2022/05/17 06:55:11;;;;;;;17.80;13.55;;;;;;;22.26;59.81;100249.84;5089741;28;20032;-29
2022/05/17 06:57:38;;;;;;;19.30;13.23;;;;;;;22.48;57.94;100239.50;5089319;28;20059;-30
2022/05/17 07:00:05;;;;;;;16.05;12.55;;;;;;;22.53;56.82;100244.84;5071117;28;20028;-29
2022/05/17 07:02:32;;;;;;;14.15;12.68;;;;;;;22.84;56.58;100254.16;5089109;28;20020;-31
2022/05/17 07:04:59;;;;;;;16.02;12.52;;;;;;;22.78;56.26;100239.03;5071287;28;20036;-31
2022/05/17 07:07:26;;;;;;;15.43;12.77;;;;;;;22.87;57.13;100226.38;5070425;28;20028;-34
2022/05/17 07:15:20;;;;;;;15.18;12.50;;;;;;;23.36;56.52;100231.56;5089492;28;20043;-32
2022/05/17 07:17:47;;;;;;;12.65;11.45;;;;;;;23.45;55.25;100235.97;5089401;28;20043;-29
2022/05/17 07:20:13;;;;;;;16.38;11.63;;;;;;;23.43;56.33;100227.31;5089196;28;20545;-29
2022/05/17 07:22:38;;;;;;;14.27;11.68;;;;;;;23.73;56.68;100248.81;5088800;28;20024;-29
2022/05/17 07:25:04;;;;;;;12.80;11.50;;;;;;;23.62;55.50;100235.41;5089035;28;20055;-33
2022/05/17 07:27:30;;;;;;;14.82;11.90;;;;;;;23.90;54.07;100243.59;5087525;28;20123;-34
2022/05/17 07:29:56;;;;;;;13.10;11.20;;;;;;;23.95;54.45;100238.06;5070255;28;20475;-32
2022/05/17 07:32:21;;;;;;;14.85;10.65;;;;;;;23.76;53.61;100245.47;5070656;28;20362;-29
2022/05/17 07:34:47;;;;;;;13.30;9.98;;;;;;;24.02;52.81;100224.00;5088787;28;20063;-32
2022/05/17 07:37:13;;;;;;;11.98;10.20;;;;;;;24.15;52.68;100231.38;5087370;28;20050;-34
2022/05/17 07:39:38;;;;;;;10.98;9.88;;;;;;;24.29;52.97;100236.78;5087253;28;20052;-31
2022/05/17 07:42:05;;;;;;;12.93;10.13;;;;;;;24.40;50.84;100216.34;5088478;28;20506;-30
2022/05/17 07:44:31;;;;;;;12.25;9.85;;;;;;;24.60;49.90;100219.75;5069681;28;20028;-29
2022/05/17 07:46:57;;;;;;;12.18;10.10;;;;;;;24.49;51.74;100208.25;5070300;28;20031;-30
2022/05/17 07:49:23;;;;;;;12.00;9.25;;;;;;;24.90;50.22;100214.66;5088561;28;20032;-30
2022/05/17 07:51:48;;;;;;;10.20;9.00;;;;;;;25.15;50.07;100235.03;5088261;28;20024;-30
2022/05/17 07:54:14;;;;;;;11.13;8.80;;;;;;;25.10;48.27;100233.25;5088479;28;20788;-33
2022/05/17 07:56:39;;;;;;;11.60;9.32;;;;;;;25.46;47.99;100213.22;5069725;28;20023;-31
2022/05/17 07:59:05;;;;;;;11.85;8.43;;;;;;;25.38;46.85;100211.28;5088113;28;20024;-29
2022/05/17 08:01:30;;;;;;;11.45;8.93;;;;;;;25.19;47.28;100215.00;5088211;28;20032;-31
2022/05/17 08:03:56;;;;;;;9.40;8.45;;;;;;;25.54;45.97;100228.84;5088433;28;20034;-30
2022/05/17 08:06:21;;;;;;;11.02;9.07;;;;;;;25.61;45.94;100226.44;5086635;28;20046;-29
2022/05/17 08:08:47;;;;;;;12.40;8.05;;;;;;;25.92;43.96;100233.78;5087965;28;20577;-29
2022/05/17 08:11:12;;;;;;;10.70;8.25;;;;;;;25.79;44.24;100218.31;5087969;28;20028;-36
2022/05/17 08:13:38;;;;;;;9.30;8.35;;;;;;;26.00;45.05;100205.69;5087649;28;20114;-32
2022/05/17 08:16:04;;;;;;;11.93;8.65;;;;;;;26.11;45.00;100210.84;5088106;28;20055;-29
2022/05/17 08:18:30;;;;;;;10.05;9.05;;;;;;;26.15;44.57;100189.94;5067429;28;20135;-29
2022/05/17 08:20:56;;;;;;;12.13;8.43;;;;;;;26.33;44.80;100213.44;5086823;28;20035;-32
2022/05/17 08:23:22;;;;;;;9.18;8.05;;;;;;;26.36;44.08;100221.00;5086798;28;20032;-29
2022/05/17 08:28:31;;;;;;;10.10;8.73;;;;;;;26.55;45.17;100193.31;5086637;28;20066;-32
2022/05/17 08:30:57;;;;;;;9.70;8.05;;;;;;;26.76;43.32;100185.28;5086481;28;20810;-34
2022/05/17 08:33:26;;;;;;;9.05;7.75;;;;;;;27.17;42.99;100181.13;5086708;28;20024;-29
2022/05/17 08:36:00;;;;;;;12.23;9.02;;;;;;;27.46;43.32;100204.25;5085086;28;20032;-31
2022/05/17 08:38:29;;;;;;;10.25;8.57;;;;;;;27.23;42.08;100195.47;5068098;28;20050;-35
2022/05/17 08:41:12;;;;;;;9.10;8.20;;;;;;;27.57;43.65;100200.00;5068000;28;20853;-30
2022/05/17 08:44:01;;;;;;;9.63;8.55;;;;;;;27.44;42.19;100196.38;5086530;28;20123;-30
2022/05/17 08:46:54;;;;;;;10.27;9.18;;;;;;;27.42;43.28;100179.47;5068463;28;20031;-31
2022/05/17 08:49:31;;;;;;;9.65;8.65;;;;;;;27.65;43.18;100190.94;5086749;28;20490;-31
2022/05/17 08:52:15;;;;;;;9.85;8.85;;;;;;;27.80;42.24;100175.84;5068303;28;21174;-31
2022/05/17 08:54:40;;;;;;;10.57;8.23;;;;;;;28.33;40.29;100187.28;5067833;28;20038;-31
2022/05/17 08:57:40;;;;;;;13.05;9.23;;;;;;;28.10;39.82;100183.28;5086185;28;20036;-30
2022/05/17 09:00:17;;;;;;;10.02;8.32;;;;;;;28.32;38.33;100169.22;5068058;28;20020;-31
2022/05/17 09:02:50;;;;;;;10.27;8.68;;;;;;;28.77;38.93;100174.00;5067628;28;20057;-29
2022/05/17 09:05:36;;;;;;;9.90;8.40;;;;;;;28.84;39.74;100168.72;5067944;28;20036;-31
2022/05/17 09:08:04;;;;;;;13.10;8.65;;;;;;;28.92;39.17;100179.97;5086355;28;20028;-41
2022/05/17 09:10:41;;;;;;;9.77;8.48;;;;;;;28.71;39.37;100172.59;5086063;28;20068;-35
2022/05/17 09:13:18;;;;;;;9.50;8.60;;;;;;;28.96;39.09;100162.47;5068008;28;20032;-30
2022/05/17 09:15:44;;;;;;;;;;;;;;;28.80;38.03;100169.75;5068213;28;20032;-32
2022/05/17 09:18:13;;;;;;;10.57;8.77;;;;;;;28.58;39.35;100160.78;5086322;28;19907;-29
2022/05/17 09:20:40;;;;;;;9.40;8.40;;;;;;;28.68;39.23;100162.28;5067524;28;20051;-29
2022/05/17 09:23:06;;;;;;;11.15;8.38;;;;;;;28.92;37.93;100152.53;5068125;28;20036;-33
2022/05/17 09:25:56;;;;;;;8.52;7.68;;;;;;;28.99;37.96;100164.56;5067900;28;20515;-29
2022/05/17 09:28:28;;;;;;;9.82;7.15;;;;;;;29.35;36.63;100162.19;5067864;28;20032;-30
2022/05/17 09:31:22;;;;;;;8.98;7.45;;;;;;;29.52;38.48;100159.22;5088980;28;20040;-30
2022/05/17 09:33:49;;;;;;;8.07;7.28;;;;;;;29.85;35.62;100161.03;5087234;28;20131;-33
2022/05/17 09:36:21;;;;;;;8.35;7.28;;;;;;;29.88;35.24;100138.34;5071818;28;20081;-29
2022/05/17 09:38:49;;;;;;;8.30;7.10;;;;;;;29.92;35.22;100153.00;5071324;28;20051;-34
2022/05/17 09:41:21;;;;;;;8.15;6.88;;;;;;;29.90;34.46;100146.25;5089689;28;20396;-30
2022/05/17 09:44:03;;;;;;;9.77;7.28;;;;;;;30.46;33.94;100137.25;5071841;28;20039;-32
2022/05/17 09:46:36;;;;;;;9.77;6.90;;;;;;;30.47;32.50;100145.16;5089682;28;20035;-40
2022/05/17 09:54:40;;;;;;;8.25;6.47;;;;;;;30.37;32.68;100129.94;5089643;28;20089;-34
2022/05/17 09:57:25;;;;;;;7.82;5.68;;;;;;;30.58;30.99;100104.94;5071222;28;20054;-33
2022/05/17 10:00:16;;;;;;;7.45;5.13;;;;;;;31.10;30.34;100125.19;5070923;28;20035;-33
2022/05/17 10:02:55;;;;;;;7.78;6.15;;;;;;;30.90;32.50;100126.25;5089315;28;20058;-31
2022/05/17 10:05:25;;;;;;;7.53;6.05;;;;;;;30.71;33.81;100118.63;5071048;28;20511;-33
2022/05/17 10:07:58;;;;;;;8.75;6.03;;;;;;;31.00;30.58;100112.75;5071050;28;20067;-30
2022/05/17 10:10:32;;;;;;;7.75;5.50;;;;;;;31.44;32.05;100120.06;5089448;28;20107;-30
2022/05/17 10:13:18;;;;;;;6.93;4.00;;;;;;;31.68;28.02;100099.75;5070900;28;20043;-30
2022/05/17 10:15:48;;;;;;;6.03;3.90;;;;;;;31.75;29.61;100110.13;5071038;28;20028;-31
2022/05/17 10:18:38;;;;;;;5.93;3.33;;;;;;;31.48;24.54;100112.69;5070762;28;20493;-32
2022/05/17 10:21:19;;;;;;;5.47;3.08;;;;;;;31.82;25.97;100111.09;5070658;28;20036;-35
2022/05/17 10:23:50;;;;;;;5.53;3.22;;;;;;;31.08;25.21;100108.22;5089018;28;20047;-33
2022/05/17 10:26:21;;;;;;;5.25;3.50;;;;;;;31.67;25.03;100091.84;5070544;28;20036;-33
2022/05/17 10:29:14;;;;;;;5.47;3.15;;;;;;;32.39;27.71;100083.84;5070267;28;20415;-34
2022/05/17 10:31:57;;;;;;;6.07;3.30;;;;;;;32.38;23.99;100098.00;5070496;28;20130;-30
2022/05/17 10:34:39;;;;;;;6.13;3.38;;;;;;;32.62;24.05;100070.09;5070518;28;20032;-34
2022/05/17 10:37:17;;;;;;;5.32;3.40;;;;;;;32.42;23.37;100085.06;5070684;28;20122;-33
2022/05/17 10:40:04;;;;;;;5.10;3.33;;;;;;;32.01;26.09;100081.94;5070320;28;20109;-30
2022/05/17 10:42:30;;;;;;;5.07;3.17;;;;;;;32.14;24.63;100066.84;5087724;28;20062;-40
2022/05/17 10:44:58;;;;;;;6.20;3.30;;;;;;;32.23;23.14;100072.91;5070319;28;20059;-31
2022/05/17 10:47:39;;;;;;;5.15;3.13;;;;;;;32.20;22.66;100072.84;5070485;28;20056;-39
2022/05/17 10:50:10;;;;;;;5.13;3.00;;;;;;;32.62;23.16;100063.78;5070127;28;20028;-31
2022/05/17 10:52:46;;;;;;;4.72;2.65;;;;;;;33.06;21.82;100049.50;5070096;28;20404;-30
2022/05/17 10:55:23;;;;;;;4.13;2.60;;;;;;;32.86;22.98;100064.56;5078957;28;20039;-33
2022/05/17 10:58:03;;;;;;;3.33;2.60;;;;;;;32.91;22.17;100064.25;5089970;28;20446;-33
2022/05/17 11:00:38;;;;;;;4.68;2.72;;;;;;;33.04;20.68;100046.31;5089760;28;20024;-31
2022/05/17 11:03:39;;;;;;;4.70;2.72;;;;;;;33.59;22.15;100049.47;5090099;28;20451;-37
2022/05/17 11:06:15;;;;;;;5.10;2.55;;;;;;;33.12;22.05;100045.28;5108426;28;20097;-34
2022/05/17 11:09:06;;;;;;;5.43;3.03;;;;;;;33.18;23.21;100052.06;5106498;28;20191;-31
2022/05/17 11:11:50;;;;;;;5.57;2.85;;;;;;;32.90;20.65;100044.13;5096771;28;20046;-29
2022/05/17 11:14:34;;;;;;;6.18;3.13;;;;;;;33.34;21.32;100043.59;5108293;28;20047;-31
2022/05/17 11:17:14;;;;;;;4.00;2.92;;;;;;;33.16;21.48;100032.31;5106413;28;20079;-30
2022/05/17 11:19:49;;;;;;;4.97;3.47;;;;;;;33.70;21.47;100027.50;5108038;28;20032;-33
2022/05/17 11:22:23;;;;;;;6.28;3.53;;;;;;;34.11;21.14;100026.75;5106670;28;20047;-30
2022/05/17 11:25:10;;;;;;;4.47;2.85;;;;;;;34.43;21.75;100035.41;5108009;28;20031;-30
2022/05/17 11:28:24;;;;;;;5.90;3.10;;;;;;;34.27;21.75;100021.81;5106725;28;20407;-33
2022/05/17 11:31:00;;;;;;;4.57;3.30;;;;;;;34.34;21.54;100019.09;5085236;28;20050;-32
2022/05/17 11:33:42;;;;;;;5.05;3.40;;;;;;;34.76;22.11;100020.66;5089172;28;20028;-32
2022/05/17 11:36:10;;;;;;;4.50;3.40;;;;;;;34.45;21.03;100010.09;5106191;28;20102;-32
2022/05/17 11:38:37;;;;;;;4.55;3.30;;;;;;;34.50;21.77;100013.31;5107560;28;20045;-31
2022/05/17 11:41:06;;;;;;;6.25;3.08;;;;;;;34.61;21.70;100007.84;5107952;28;20052;-30
2022/05/17 11:43:47;;;;;;;5.90;3.10;;;;;;;35.12;20.40;100006.22;5089363;28;20031;-31
2022/05/17 11:46:25;;;;;;;6.15;3.53;;;;;;;35.53;18.37;100006.88;5108074;28;20047;-34